Time;durP1;ratioP1;P1;durP2;ratioP2;P2;SDS_P1;SDS_P2;PMS_P1;PMS_P2;Temp;Humidity;BMP_temperature;BMP_pressure;BME280_temperature;BME280_humidity;BME280_pressure;Samples;Min_cycle;Max_cycle;Signal;HPM_P1;HPM_P2
2021/07/22 00:02:09;;;;;;;5.13;4.63;;;25.20;73.00;;;;;;5013735;28;20227;-62
2021/07/22 00:04:36;;;;;;;4.63;4.22;;;25.20;73.10;;;;;;4998656;28;20291;-62
2021/07/22 00:07:03;;;;;;;5.40;4.90;;;25.20;73.10;;;;;;4995094;28;20287;-62
2021/07/22 00:09:29;;;;;;;5.30;4.72;;;25.20;73.10;;;;;;5006579;28;20221;-62
2021/07/22 00:11:55;;;;;;;5.22;4.72;;;25.10;73.00;;;;;;4994839;28;20303;-62
2021/07/22 00:14:22;;;;;;;4.72;4.28;;;25.20;73.10;;;;;;4996253;28;20210;-62
2021/07/22 00:16:48;;;;;;;5.00;4.50;;;25.10;73.10;;;;;;4995422;28;20204;-62
2021/07/22 00:19:15;;;;;;;5.25;4.75;;;25.10;73.10;;;;;;4993461;28;20722;-62
2021/07/22 00:21:41;;;;;;;5.10;4.53;;;25.20;73.20;;;;;;4994823;28;20817;-62
2021/07/22 00:24:08;;;;;;;5.07;4.57;;;25.10;73.10;;;;;;4995208;28;20199;-62
2021/07/22 00:26:34;;;;;;;5.43;4.93;;;25.10;73.20;;;;;;4995970;28;20532;-62
2021/07/22 00:29:01;;;;;;;4.50;4.10;;;25.10;73.20;;;;;;4995370;28;20234;-62
2021/07/22 00:31:27;;;;;;;5.82;4.63;;;25.10;73.30;;;;;;5002416;28;20204;-62
2021/07/22 00:33:54;;;;;;;5.25;4.63;;;25.10;73.20;;;;;;4995434;28;20256;-62
2021/07/22 00:36:20;;;;;;;4.85;4.43;;;25.20;73.20;;;;;;4995457;28;20216;-62
2021/07/22 00:38:49;;;;;;;5.82;4.35;;;25.10;73.20;;;;;;4995665;28;20646;-62
2021/07/22 00:41:15;;;;;;;6.00;4.60;;;25.10;73.20;;;;;;4994954;28;20223;-62
2021/07/22 00:43:42;;;;;;;5.47;4.95;;;25.10;73.30;;;;;;4994624;28;20205;-62
2021/07/22 00:46:08;;;;;;;5.20;4.70;;;25.20;73.40;;;;;;4995225;28;20204;-61
2021/07/22 00:48:35;;;;;;;4.78;4.38;;;25.20;73.40;;;;;;4999079;28;20219;-62
2021/07/22 00:51:01;;;;;;;4.95;4.45;;;25.10;73.30;;;;;;4995560;28;20214;-62
2021/07/22 00:53:28;;;;;;;4.72;4.20;;;25.10;73.30;;;;;;4995652;28;20206;-62
2021/07/22 00:55:54;;;;;;;5.03;4.18;;;25.10;73.30;;;;;;4996046;28;20628;-62
2021/07/22 00:58:21;;;;;;;5.15;4.65;;;25.10;73.20;;;;;;4994976;28;20570;-62
2021/07/22 01:00:47;;;;;;;4.50;4.10;;;25.10;73.30;;;;;;4995214;28;20695;-62
2021/07/22 01:03:13;;;;;;;4.95;4.45;;;25.20;73.30;;;;;;5000864;28;20585;-62
2021/07/22 01:05:40;;;;;;;4.78;4.38;;;25.10;73.30;;;;;;4994459;28;20617;-64
2021/07/22 01:08:06;;;;;;;4.93;4.45;;;25.10;73.30;;;;;;4998378;28;20232;-63
2021/07/22 01:10:33;;;;;;;5.72;5.13;;;25.10;73.40;;;;;;4991272;28;20299;-63
2021/07/22 01:12:59;;;;;;;4.90;4.40;;;25.10;73.40;;;;;;4979492;28;20208;-63
2021/07/22 01:15:26;;;;;;;5.03;4.45;;;25.10;73.40;;;;;;4992063;28;20211;-63
2021/07/22 01:17:52;;;;;;;5.28;4.78;;;25.10;73.40;;;;;;4993615;28;20214;-64
2021/07/22 01:20:19;;;;;;;6.80;4.50;;;25.10;73.40;;;;;;4992099;28;20226;-63
2021/07/22 01:22:45;;;;;;;4.78;4.28;;;25.10;73.40;;;;;;4993592;28;20321;-63
2021/07/22 01:25:11;;;;;;;5.95;4.63;;;25.10;73.30;;;;;;4992547;28;20210;-63
2021/07/22 01:27:38;;;;;;;5.70;4.97;;;25.10;73.30;;;;;;4994829;28;20198;-63
2021/07/22 01:30:04;;;;;;;5.30;4.70;;;25.10;73.30;;;;;;4992623;28;20223;-63
2021/07/22 01:32:31;;;;;;;4.18;3.70;;;25.10;73.30;;;;;;4992704;28;20648;-64
2021/07/22 01:34:57;;;;;;;4.90;4.50;;;25.10;73.30;;;;;;4994102;28;20589;-64
2021/07/22 01:37:24;;;;;;;4.85;4.45;;;25.10;73.20;;;;;;4993097;28;20560;-64
2021/07/22 01:39:50;;;;;;;5.25;4.68;;;25.10;73.20;;;;;;4993002;28;20543;-64
2021/07/22 01:42:16;;;;;;;4.50;4.10;;;25.10;73.20;;;;;;4995053;28;20589;-64
2021/07/22 01:44:43;;;;;;;4.93;4.47;;;25.10;73.90;;;;;;5000460;28;20853;-63
2021/07/22 01:47:09;;;;;;;4.28;3.88;;;25.10;73.30;;;;;;4993843;28;20581;-63
2021/07/22 01:49:36;;;;;;;5.10;4.60;;;25.10;73.30;;;;;;4992905;28;20591;-64
2021/07/22 01:52:03;;;;;;;4.80;4.32;;;25.10;73.30;;;;;;4994787;28;20679;-63
2021/07/22 01:54:29;;;;;;;5.40;4.90;;;25.10;73.20;;;;;;4994506;28;20199;-64
2021/07/22 01:56:55;;;;;;;4.80;4.30;;;25.10;73.20;;;;;;4994603;28;20211;-63
2021/07/22 01:59:22;;;;;;;5.80;4.82;;;25.10;73.30;;;;;;4992661;28;20231;-63
2021/07/22 02:01:48;;;;;;;4.70;4.20;;;25.10;73.30;;;;;;4995976;28;20250;-63
2021/07/22 02:04:15;;;;;;;4.80;4.30;;;25.10;73.30;;;;;;4993432;28;20218;-63
2021/07/22 02:06:41;;;;;;;5.00;4.50;;;25.10;73.20;;;;;;4994918;28;20204;-64
2021/07/22 02:09:08;;;;;;;5.25;4.75;;;25.10;73.30;;;;;;4992816;28;20223;-63
2021/07/22 02:11:34;;;;;;;4.95;4.50;;;25.10;73.30;;;;;;4993935;28;20224;-63
2021/07/22 02:14:01;;;;;;;5.10;4.60;;;25.10;73.20;;;;;;4999037;28;20209;-63
2021/07/22 02:16:27;;;;;;;5.00;4.50;;;25.10;73.20;;;;;;4998811;28;20294;-63
2021/07/22 02:18:53;;;;;;;5.57;4.40;;;25.10;73.20;;;;;;4993156;28;20675;-63
2021/07/22 02:21:21;;;;;;;5.18;4.68;;;25.10;73.10;;;;;;4992542;28;20640;-63
2021/07/22 02:23:48;;;;;;;5.03;4.50;;;25.10;73.10;;;;;;4992707;28;20215;-63
2021/07/22 02:26:14;;;;;;;4.68;4.28;;;25.10;73.10;;;;;;4993193;28;20821;-63
2021/07/22 02:28:40;;;;;;;6.80;4.78;;;25.10;73.20;;;;;;4996223;28;20227;-63
2021/07/22 02:31:07;;;;;;;5.07;4.68;;;25.10;73.10;;;;;;4993882;28;20209;-63
2021/07/22 02:33:33;;;;;;;4.55;4.15;;;25.10;73.10;;;;;;5000759;28;20211;-63
2021/07/22 02:36:00;;;;;;;4.53;3.85;;;25.10;73.10;;;;;;4992241;28;20204;-63
2021/07/22 02:38:27;;;;;;;5.00;4.50;;;25.10;73.10;;;;;;4993410;28;20232;-63
2021/07/22 02:40:54;;;;;;;4.75;4.35;;;25.10;73.10;;;;;;4990426;28;20558;-63
2021/07/22 02:43:20;;;;;;;5.30;4.80;;;25.10;73.00;;;;;;4993341;28;20656;-63
2021/07/22 02:45:47;;;;;;;4.82;4.32;;;25.10;73.00;;;;;;4993264;28;20589;-64
2021/07/22 02:48:14;;;;;;;4.97;4.43;;;25.10;73.00;;;;;;4992487;28;20529;-63
2021/07/22 02:50:40;;;;;;;4.75;4.35;;;25.10;73.00;;;;;;4992462;28;20581;-63
2021/07/22 02:53:07;;;;;;;4.50;4.10;;;25.10;73.00;;;;;;4993051;28;20590;-64
2021/07/22 02:55:33;;;;;;;4.50;4.10;;;25.10;73.00;;;;;;4994073;28;20211;-63
2021/07/22 02:58:00;;;;;;;4.40;4.00;;;25.10;73.00;;;;;;4994217;28;20199;-63
2021/07/22 03:00:26;;;;;;;5.40;4.32;;;25.10;72.90;;;;;;4991906;28;20713;-63
2021/07/22 03:02:53;;;;;;;6.00;4.47;;;25.10;73.00;;;;;;4992518;28;20239;-63
2021/07/22 03:05:19;;;;;;;5.35;4.50;;;25.10;73.00;;;;;;4993142;28;20203;-63
2021/07/22 03:07:46;;;;;;;5.03;4.55;;;25.10;73.10;;;;;;4994107;28;20271;-64
2021/07/22 03:10:13;;;;;;;4.68;4.28;;;25.10;73.70;;;;;;4992689;28;20203;-64
2021/07/22 03:12:39;;;;;;;5.07;4.57;;;25.10;73.40;;;;;;4989933;28;20211;-64
2021/07/22 03:15:06;;;;;;;5.28;4.53;;;25.00;73.40;;;;;;4994279;28;20231;-63
2021/07/22 03:17:32;;;;;;;5.47;4.57;;;25.10;73.40;;;;;;4993574;28;20202;-64
2021/07/22 03:19:59;;;;;;;6.20;4.63;;;25.00;73.40;;;;;;4998257;28;20225;-64
2021/07/22 03:22:25;;;;;;;5.05;4.55;;;25.10;73.50;;;;;;4992321;28;20227;-63
2021/07/22 03:24:52;;;;;;;5.28;4.78;;;25.10;73.50;;;;;;4998916;28;20203;-64
2021/07/22 03:27:18;;;;;;;5.05;4.55;;;25.10;73.50;;;;;;4996646;28;20208;-63
2021/07/22 03:29:45;;;;;;;4.53;4.07;;;25.00;73.40;;;;;;4990379;28;20219;-63
2021/07/22 03:32:12;;;;;;;5.00;4.50;;;25.10;73.50;;;;;;4993457;28;20207;-64
2021/07/22 03:34:38;;;;;;;5.25;4.72;;;25.00;73.40;;;;;;4990814;28;20572;-63
2021/07/22 03:37:05;;;;;;;4.75;4.35;;;25.10;73.40;;;;;;4992474;28;20200;-62
2021/07/22 03:39:31;;;;;;;4.78;4.28;;;25.00;73.40;;;;;;4991123;28;20223;-61
2021/07/22 03:41:58;;;;;;;5.80;4.55;;;25.00;73.40;;;;;;4993673;28;20323;-63
2021/07/22 03:44:24;;;;;;;4.97;4.47;;;25.00;73.40;;;;;;4991521;28;20230;-64
2021/07/22 03:46:51;;;;;;;5.00;4.50;;;25.10;73.60;;;;;;4993918;28;20211;-63
2021/07/22 03:49:17;;;;;;;4.85;4.30;;;25.00;73.60;;;;;;4994241;28;20233;-63
2021/07/22 03:51:44;;;;;;;4.90;4.40;;;25.00;73.60;;;;;;4993865;28;20313;-63
2021/07/22 03:54:10;;;;;;;4.55;4.15;;;25.00;73.60;;;;;;4994050;28;20208;-63
2021/07/22 03:56:37;;;;;;;4.70;4.30;;;25.00;73.60;;;;;;4996424;28;20203;-63
2021/07/22 03:59:03;;;;;;;4.70;4.30;;;25.00;73.60;;;;;;4995345;28;20223;-63
2021/07/22 04:01:29;;;;;;;5.60;4.97;;;25.00;73.70;;;;;;4997512;28;20223;-63
2021/07/22 04:03:56;;;;;;;4.43;4.03;;;25.00;73.60;;;;;;4995046;28;20283;-63
2021/07/22 04:06:22;;;;;;;4.78;4.38;;;25.00;73.60;;;;;;4996099;28;20210;-63
2021/07/22 04:08:49;;;;;;;5.20;4.70;;;25.00;73.60;;;;;;4997078;28;20225;-63
2021/07/22 04:11:16;;;;;;;4.45;4.05;;;25.00;73.50;;;;;;5000369;28;20226;-63
2021/07/22 04:13:42;;;;;;;5.03;4.35;;;25.00;73.60;;;;;;4994547;28;20291;-63
2021/07/22 04:16:09;;;;;;;5.05;4.55;;;25.00;73.60;;;;;;4992937;28;20207;-64
2021/07/22 04:18:35;;;;;;;4.68;4.28;;;25.00;73.60;;;;;;4994311;28;20245;-63
2021/07/22 04:21:02;;;;;;;4.70;4.30;;;25.00;73.50;;;;;;4992918;28;20222;-63
2021/07/22 04:23:28;;;;;;;4.93;4.45;;;25.00;73.50;;;;;;4995019;28;20301;-63
2021/07/22 04:25:55;;;;;;;4.75;4.25;;;25.00;73.50;;;;;;4998778;28;20282;-64
2021/07/22 04:28:21;;;;;;;4.90;4.28;;;25.00;73.50;;;;;;4997879;28;20235;-63
2021/07/22 04:30:48;;;;;;;4.93;4.45;;;25.00;73.50;;;;;;5001071;28;20211;-64
2021/07/22 04:33:14;;;;;;;4.30;3.90;;;25.00;73.40;;;;;;5000930;28;20207;-64
2021/07/22 04:35:41;;;;;;;4.75;4.35;;;25.00;73.50;;;;;;5000922;28;20212;-64
2021/07/22 04:38:07;;;;;;;4.50;4.10;;;25.00;73.50;;;;;;4995696;28;20233;-64
2021/07/22 04:40:34;;;;;;;4.72;4.30;;;25.00;73.50;;;;;;5001983;28;20205;-64
2021/07/22 04:43:00;;;;;;;5.13;4.60;;;25.00;73.50;;;;;;4997905;28;20236;-64
2021/07/22 04:45:26;;;;;;;4.00;3.70;;;25.00;73.40;;;;;;4998078;28;20196;-64
2021/07/22 04:47:53;;;;;;;4.40;4.00;;;25.00;73.40;;;;;;4995137;28;20253;-63
2021/07/22 04:50:19;;;;;;;5.20;4.15;;;25.00;73.40;;;;;;5000737;28;20195;-63
2021/07/22 04:52:46;;;;;;;4.93;4.53;;;25.00;73.40;;;;;;4992721;28;20203;-63
2021/07/22 04:55:12;;;;;;;5.00;4.50;;;25.00;73.40;;;;;;4991130;28;20245;-64
2021/07/22 04:57:39;;;;;;;4.78;4.32;;;25.00;73.40;;;;;;5002089;28;20224;-64
2021/07/22 05:00:05;;;;;;;4.82;4.35;;;25.00;73.30;;;;;;5000564;28;20294;-63
2021/07/22 05:02:32;;;;;;;4.75;4.32;;;25.00;73.30;;;;;;5000345;28;20248;-63
2021/07/22 05:04:59;;;;;;;4.70;4.30;;;25.00;73.40;;;;;;5002035;28;20199;-63
2021/07/22 05:07:25;;;;;;;4.45;4.05;;;25.00;73.40;;;;;;4996948;28;20199;-63
2021/07/22 05:09:51;;;;;;;4.28;3.88;;;25.00;73.50;;;;;;4996579;28;20204;-63
2021/07/22 05:12:18;;;;;;;4.55;4.00;;;25.00;73.60;;;;;;4992521;28;20220;-62
2021/07/22 05:14:44;;;;;;;4.65;4.18;;;25.00;73.70;;;;;;4989593;28;20207;-63
2021/07/22 05:17:11;;;;;;;5.85;4.50;;;25.00;73.70;;;;;;4997907;28;20656;-63
2021/07/22 05:19:37;;;;;;;5.03;4.20;;;25.00;73.70;;;;;;4998248;28;20797;-63
2021/07/22 05:22:04;;;;;;;4.57;4.18;;;25.00;73.80;;;;;;4997190;28;20339;-62
2021/07/22 05:24:30;;;;;;;4.47;3.95;;;25.00;73.80;;;;;;4997837;28;20207;-62
2021/07/22 05:26:57;;;;;;;5.28;4.35;;;25.00;73.90;;;;;;4995071;28;20199;-60
2021/07/22 05:29:23;;;;;;;5.15;4.50;;;25.00;73.90;;;;;;5001310;28;20249;-60
2021/07/22 05:31:50;;;;;;;4.30;3.90;;;25.00;73.80;;;;;;4994556;28;20207;-60
2021/07/22 05:34:16;;;;;;;7.40;4.07;;;25.10;73.80;;;;;;5006836;28;20298;-58
2021/07/22 05:36:42;;;;;;;14.13;6.60;;;25.10;74.20;;;;;;4988638;28;20222;-59
2021/07/22 05:39:11;;;;;;;10.88;6.25;;;25.10;74.20;;;;;;4992177;28;20220;-63
2021/07/22 05:41:37;;;;;;;13.25;6.55;;;25.00;76.10;;;;;;5000248;28;20206;-63
2021/07/22 05:44:04;;;;;;;15.38;8.35;;;25.00;75.90;;;;;;4989506;28;20258;-58
2021/07/22 05:46:32;;;;;;;12.40;6.65;;;25.00;74.60;;;;;;4998566;28;20206;-60
2021/07/22 05:48:58;;;;;;;10.90;7.70;;;25.00;74.80;;;;;;4992792;28;20278;-59
2021/07/22 05:51:25;;;;;;;11.68;7.95;;;25.00;74.40;;;;;;4986655;28;20684;-60
2021/07/22 05:53:51;;;;;;;11.48;8.18;;;25.00;75.10;;;;;;4973312;28;20208;-61
2021/07/22 05:56:18;;;;;;;10.68;8.05;;;24.90;74.90;;;;;;4985670;28;20258;-61
2021/07/22 05:58:45;;;;;;;13.20;9.70;;;24.90;73.90;;;;;;4991892;28;20250;-63
2021/07/22 06:01:11;;;;;;;15.27;11.48;;;24.90;71.50;;;;;;4990835;28;20231;-63
2021/07/22 06:03:38;;;;;;;14.60;12.35;;;24.80;70.30;;;;;;4991932;28;20236;-63
2021/07/22 06:06:04;;;;;;;16.73;12.48;;;24.70;70.30;;;;;;4992559;28;20200;-63
2021/07/22 06:08:30;;;;;;;17.30;12.50;;;24.50;69.80;;;;;;4991982;28;20527;-63
2021/07/22 06:10:57;;;;;;;14.88;12.02;;;24.50;69.40;;;;;;4991913;28;20204;-64
2021/07/22 06:13:23;;;;;;;16.50;11.02;;;24.50;69.60;;;;;;4991800;28;20200;-63
2021/07/22 06:15:50;;;;;;;13.75;11.13;;;24.30;70.40;;;;;;4991504;28;20306;-62
2021/07/22 06:18:16;;;;;;;13.13;11.32;;;24.40;70.60;;;;;;4993218;28;20219;-62
2021/07/22 06:20:43;;;;;;;13.80;10.82;;;24.40;70.30;;;;;;4991791;28;20214;-62
2021/07/22 06:23:09;;;;;;;14.82;10.50;;;24.40;70.30;;;;;;4989940;28;20229;-62
2021/07/22 06:25:35;;;;;;;11.85;10.57;;;24.30;70.10;;;;;;4986681;28;20208;-63
2021/07/22 06:28:02;;;;;;;12.85;10.38;;;24.40;70.80;;;;;;4989475;28;20219;-60
2021/07/22 06:30:31;;;;;;;12.82;11.07;;;24.50;71.60;;;;;;4991723;28;20287;-58
2021/07/22 06:32:57;;;;;;;13.00;10.60;;;24.60;72.00;;;;;;4991436;28;20684;-58
2021/07/22 06:35:23;;;;;;;11.35;9.77;;;24.70;71.80;;;;;;4991786;28;20231;-57
2021/07/22 06:37:50;;;;;;;10.95;9.85;;;24.70;71.90;;;;;;4996397;28;20238;-59
2021/07/22 06:40:16;;;;;;;11.25;9.38;;;24.70;71.90;;;;;;4991506;28;20295;-59
2021/07/22 06:42:43;;;;;;;12.30;9.30;;;24.80;72.00;;;;;;4991437;28;20234;-60
2021/07/22 06:45:10;;;;;;;10.65;9.30;;;24.80;72.00;;;;;;4993173;28;20211;-58
2021/07/22 06:47:36;;;;;;;11.90;10.43;;;24.80;72.00;;;;;;4994638;28;20691;-61
2021/07/22 06:50:03;;;;;;;11.50;10.30;;;24.80;72.00;;;;;;5000470;28;20664;-57
2021/07/22 06:52:29;;;;;;;11.45;10.00;;;24.90;72.10;;;;;;4991742;28;20637;-54
2021/07/22 06:54:55;;;;;;;15.32;9.77;;;24.90;72.00;;;;;;5003989;28;20544;-60
2021/07/22 06:57:22;;;;;;;11.45;10.00;;;24.90;72.90;;;;;;4991451;28;20700;-67
2021/07/22 06:59:48;;;;;;;9.90;8.90;;;25.00;73.40;;;;;;4992205;28;20682;-67
2021/07/22 07:02:15;;;;;;;14.68;9.27;;;25.00;72.90;;;;;;5003078;28;20585;-58
2021/07/22 07:04:41;;;;;;;9.98;8.88;;;25.00;72.90;;;;;;4999938;28;20635;-60
2021/07/22 07:07:08;;;;;;;12.27;9.05;;;25.00;73.50;;;;;;5000806;28;20594;-63
2021/07/22 07:09:34;;;;;;;10.20;8.75;;;25.00;73.60;;;;;;5000101;28;20257;-63
2021/07/22 07:12:01;;;;;;;10.70;9.00;;;25.00;73.30;;;;;;5002772;28;20255;-61
2021/07/22 07:14:27;;;;;;;10.45;8.18;;;25.00;73.50;;;;;;4991086;28;20202;-63
2021/07/22 07:16:54;;;;;;;10.65;8.68;;;25.00;73.50;;;;;;5000393;28;20222;-63
2021/07/22 07:19:20;;;;;;;9.35;7.70;;;25.10;73.30;;;;;;4990855;28;20293;-58
2021/07/22 07:21:47;;;;;;;10.50;7.95;;;25.10;73.20;;;;;;5007930;28;20285;-58
2021/07/22 07:24:13;;;;;;;11.65;8.82;;;25.10;73.30;;;;;;4997817;28;20258;-60
2021/07/22 07:26:40;;;;;;;11.65;8.80;;;25.10;73.20;;;;;;4983700;28;20208;-62
2021/07/22 07:29:06;;;;;;;10.95;8.48;;;25.10;73.60;;;;;;4987732;28;20200;-59
2021/07/22 07:31:33;;;;;;;10.38;8.32;;;25.10;73.00;;;;;;4985413;28;20197;-59
2021/07/22 07:33:59;;;;;;;13.90;9.35;;;25.10;72.60;;;;;;5006279;28;20214;-59
2021/07/22 07:36:25;;;;;;;12.00;8.70;;;25.10;72.60;;;;;;5007574;28;20568;-59
2021/07/22 07:38:52;;;;;;;13.73;9.82;;;25.10;72.80;;;;;;5006977;28;20255;-59
2021/07/22 07:41:18;;;;;;;11.23;9.30;;;25.10;72.40;;;;;;4995653;28;20199;-58
2021/07/22 07:43:45;;;;;;;12.50;9.30;;;25.10;72.20;;;;;;4999873;28;20231;-59
2021/07/22 07:46:11;;;;;;;14.52;9.65;;;25.10;72.50;;;;;;4995287;28;20215;-59
2021/07/22 07:48:39;;;;;;;12.90;9.32;;;25.10;72.20;;;;;;5006698;28;20700;-59
2021/07/22 07:51:08;;;;;;;9.35;8.35;;;25.10;72.20;;;;;;4999386;28;20539;-58
2021/07/22 07:53:35;;;;;;;9.95;8.20;;;25.10;72.20;;;;;;5002772;28;20204;-58
2021/07/22 07:56:02;;;;;;;8.93;8.02;;;25.10;72.20;;;;;;4991922;28;20579;-58
2021/07/22 07:58:28;;;;;;;11.23;10.02;;;25.10;72.20;;;;;;4985333;28;20715;-51
2021/07/22 08:00:54;;;;;;;10.35;9.07;;;25.10;72.50;;;;;;4997144;28;20689;-59
2021/07/22 08:03:21;;;;;;;11.45;8.77;;;25.10;72.70;;;;;;4994566;28;20235;-61
2021/07/22 08:05:47;;;;;;;13.05;9.52;;;25.10;72.30;;;;;;4998161;28;20670;-61
2021/07/22 08:08:14;;;;;;;10.55;8.68;;;25.10;72.20;;;;;;5014111;28;20620;-59
2021/07/22 08:10:41;;;;;;;12.35;10.30;;;25.10;71.90;;;;;;5010349;28;22150;-55
2021/07/22 08:13:08;;;;;;;9.90;8.90;;;25.10;72.60;;;;;;4980810;28;20572;-58
2021/07/22 08:15:35;;;;;;;13.35;9.77;;;25.20;72.30;;;;;;4977261;28;20678;-59
2021/07/22 08:18:01;;;;;;;12.65;9.32;;;25.20;72.80;;;;;;4999499;28;20224;-56
2021/07/22 08:20:28;;;;;;;11.43;9.07;;;25.10;72.60;;;;;;4993663;28;20196;-56
2021/07/22 08:22:54;;;;;;;11.43;8.98;;;25.20;73.00;;;;;;4994111;28;20234;-58
2021/07/22 08:25:20;;;;;;;10.18;8.75;;;25.20;73.10;;;;;;4994472;28;20206;-58
2021/07/22 08:27:47;;;;;;;9.68;8.68;;;25.20;72.90;;;;;;5007785;28;20232;-57
2021/07/22 08:30:13;;;;;;;10.68;8.02;;;25.20;72.40;;;;;;4989819;28;20298;-58
2021/07/22 08:32:40;;;;;;;9.75;8.35;;;25.20;72.50;;;;;;4992841;28;20211;-59
2021/07/22 08:35:06;;;;;;;10.68;9.00;;;25.20;72.50;;;;;;4993145;28;20208;-57
2021/07/22 08:37:33;;;;;;;11.55;8.77;;;25.20;73.50;;;;;;4991734;28;20230;-58
2021/07/22 08:40:03;;;;;;;10.65;9.20;;;25.20;73.20;;;;;;4992752;28;20565;-57
2021/07/22 08:42:29;;;;;;;10.60;8.88;;;25.20;73.50;;;;;;4991446;28;20211;-59
2021/07/22 08:44:56;;;;;;;8.70;7.65;;;25.20;73.30;;;;;;4993635;28;20228;-59
2021/07/22 08:47:22;;;;;;;9.52;7.78;;;25.20;73.10;;;;;;4989620;28;20241;-59
2021/07/22 08:49:49;;;;;;;8.20;7.40;;;25.20;72.80;;;;;;4993417;28;20302;-59
2021/07/22 08:52:15;;;;;;;9.55;8.60;;;25.20;72.60;;;;;;4991195;28;20196;-58
2021/07/22 08:54:42;;;;;;;8.80;7.90;;;25.20;72.30;;;;;;4993180;28;20298;-58
2021/07/22 08:57:08;;;;;;;9.07;7.75;;;25.20;72.30;;;;;;4993902;28;20247;-58
2021/07/22 08:59:35;;;;;;;8.70;7.80;;;25.20;72.30;;;;;;4990052;28;20211;-59
2021/07/22 09:02:01;;;;;;;8.90;8.00;;;25.20;72.30;;;;;;4989212;28;20219;-59
2021/07/22 09:04:28;;;;;;;8.98;8.07;;;25.20;73.00;;;;;;4986723;28;20234;-59
2021/07/22 09:06:54;;;;;;;8.23;7.43;;;25.20;72.50;;;;;;4997399;28;20227;-61
2021/07/22 09:09:21;;;;;;;8.32;7.50;;;25.20;72.30;;;;;;4992103;28;20225;-59
2021/07/22 09:11:47;;;;;;;9.52;7.95;;;25.20;72.50;;;;;;5000305;28;20235;-60
2021/07/22 09:14:13;;;;;;;8.45;7.55;;;25.20;72.60;;;;;;4992062;28;20213;-60
2021/07/22 09:16:40;;;;;;;9.13;7.72;;;25.20;72.50;;;;;;4992584;28;20231;-58
2021/07/22 09:19:06;;;;;;;8.27;7.40;;;25.20;72.30;;;;;;5008433;28;20562;-58
2021/07/22 09:21:33;;;;;;;8.88;7.70;;;25.20;72.30;;;;;;4995397;28;20204;-58
2021/07/22 09:23:59;;;;;;;9.55;8.10;;;25.20;72.50;;;;;;4993941;28;20278;-57
2021/07/22 09:26:26;;;;;;;12.30;8.63;;;25.20;72.50;;;;;;5001276;28;20219;-58
2021/07/22 09:28:52;;;;;;;9.25;7.25;;;25.20;72.50;;;;;;4992313;28;20196;-58
2021/07/22 09:31:19;;;;;;;8.18;7.38;;;25.20;72.70;;;;;;4992049;28;20311;-57
2021/07/22 09:33:45;;;;;;;8.40;7.55;;;25.20;72.30;;;;;;4991960;28;20203;-58
2021/07/22 09:36:11;;;;;;;8.93;7.88;;;25.20;72.30;;;;;;5006288;28;20207;-61
2021/07/22 09:38:38;;;;;;;8.38;7.50;;;25.20;72.50;;;;;;5012313;28;20301;-64
2021/07/22 09:41:04;;;;;;;9.18;7.47;;;25.20;72.70;;;;;;5008866;28;20213;-63
2021/07/22 09:43:31;;;;;;;7.93;7.13;;;25.20;72.70;;;;;;5000313;28;20270;-62
2021/07/22 09:45:57;;;;;;;8.70;7.85;;;25.20;72.70;;;;;;4993782;28;20298;-65
2021/07/22 09:48:24;;;;;;;8.68;7.05;;;25.20;72.70;;;;;;4994290;28;20206;-65
2021/07/22 09:50:52;;;;;;;8.10;7.30;;;25.20;72.60;;;;;;4991059;28;20208;-63
2021/07/22 09:53:20;;;;;;;9.07;7.65;;;25.20;72.70;;;;;;4994231;28;20206;-60
2021/07/22 09:55:46;;;;;;;7.50;6.80;;;25.30;72.70;;;;;;4994208;28;20585;-61
2021/07/22 09:58:13;;;;;;;8.70;7.88;;;25.20;72.30;;;;;;4999977;28;20644;-61
2021/07/22 10:00:40;;;;;;;8.68;7.78;;;25.20;72.50;;;;;;4992946;28;20669;-61
2021/07/22 10:03:06;;;;;;;7.90;7.13;;;25.20;72.50;;;;;;4993639;28;20239;-62
2021/07/22 10:05:33;;;;;;;7.25;6.53;;;25.30;72.40;;;;;;5002938;28;20195;-62
2021/07/22 10:07:59;;;;;;;8.82;7.97;;;25.20;72.30;;;;;;5000132;28;20751;-58
2021/07/22 10:10:26;;;;;;;8.70;7.57;;;25.20;72.30;;;;;;4996392;28;20661;-64
2021/07/22 10:12:52;;;;;;;7.93;7.20;;;25.30;72.30;;;;;;4992972;28;20319;-60
2021/07/22 10:15:19;;;;;;;7.72;7.03;;;25.30;72.30;;;;;;4994236;28;20199;-62
2021/07/22 10:17:46;;;;;;;7.78;7.07;;;25.30;72.40;;;;;;5001104;28;20223;-63
2021/07/22 10:20:12;;;;;;;8.85;7.68;;;25.30;72.70;;;;;;4996008;28;20204;-61
2021/07/22 10:22:38;;;;;;;9.40;7.90;;;25.30;72.70;;;;;;4990391;28;20208;-65
2021/07/22 10:25:05;;;;;;;8.27;7.47;;;25.30;72.80;;;;;;4992551;28;20234;-61
2021/07/22 10:27:31;;;;;;;8.35;7.55;;;25.30;72.70;;;;;;4991343;28;20216;-64
2021/07/22 10:30:03;;;;;;;8.40;7.07;;;25.30;72.80;;;;;;4991880;28;20200;-61
2021/07/22 10:32:31;;;;;;;8.38;7.45;;;25.30;72.70;;;;;;4991561;28;20216;-59
2021/07/22 10:34:57;;;;;;;8.20;7.20;;;25.30;72.70;;;;;;4986894;28;20499;-61
2021/07/22 10:37:24;;;;;;;10.90;9.10;;;25.30;72.60;;;;;;4979424;28;20514;-61
2021/07/22 10:39:50;;;;;;;9.43;8.38;;;25.30;73.10;;;;;;4976066;28;20661;-58
2021/07/22 10:42:17;;;;;;;10.00;8.32;;;25.30;71.40;;;;;;5010201;28;20524;-67
2021/07/22 10:44:43;;;;;;;8.98;7.80;;;25.30;72.30;;;;;;5007503;28;20717;-61
2021/07/22 10:47:11;;;;;;;7.70;6.90;;;25.30;72.30;;;;;;4992063;28;20228;-61
2021/07/22 10:49:38;;;;;;;9.25;7.70;;;25.40;72.40;;;;;;4991594;28;20207;-60
2021/07/22 10:52:05;;;;;;;8.68;7.80;;;25.30;72.30;;;;;;4991894;28;20214;-63
2021/07/22 10:54:31;;;;;;;7.72;6.88;;;25.30;72.30;;;;;;4989750;28;20204;-57
2021/07/22 10:56:57;;;;;;;8.35;7.28;;;25.30;72.60;;;;;;4990584;28;20223;-60
2021/07/22 10:59:24;;;;;;;8.02;7.28;;;25.30;72.90;;;;;;4992340;28;20204;-60
2021/07/22 11:01:51;;;;;;;12.93;8.18;;;25.30;72.90;;;;;;4989629;28;20679;-62
2021/07/22 11:04:18;;;;;;;7.60;6.90;;;25.30;72.80;;;;;;4991797;28;20231;-62
2021/07/22 11:06:44;;;;;;;8.45;6.97;;;25.30;72.80;;;;;;4986913;28;20234;-61
2021/07/22 11:09:11;;;;;;;8.15;7.15;;;25.30;72.50;;;;;;4990377;28;20199;-61
2021/07/22 11:11:37;;;;;;;8.50;7.57;;;25.30;72.30;;;;;;5009707;28;20199;-61
2021/07/22 11:14:03;;;;;;;7.78;6.97;;;25.30;72.30;;;;;;4993962;28;20210;-62
2021/07/22 11:16:31;;;;;;;8.65;7.13;;;25.30;72.30;;;;;;4999693;28;20229;-60
2021/07/22 11:18:57;;;;;;;8.40;7.03;;;25.30;72.00;;;;;;4991407;28;20280;-60
2021/07/22 11:21:26;;;;;;;8.07;7.28;;;25.30;72.30;;;;;;4980789;28;20231;-60
2021/07/22 11:23:52;;;;;;;8.40;7.60;;;25.30;72.30;;;;;;4993526;28;20236;-60
2021/07/22 11:26:19;;;;;;;7.70;6.90;;;25.30;72.30;;;;;;4999278;28;20222;-60
2021/07/22 11:28:46;;;;;;;7.40;6.57;;;25.30;72.30;;;;;;4998793;28;20286;-60
2021/07/22 11:31:12;;;;;;;8.68;7.60;;;25.30;72.30;;;;;;4991282;28;20294;-61
2021/07/22 11:33:39;;;;;;;8.60;7.70;;;25.30;72.30;;;;;;4991745;28;20303;-60
2021/07/22 11:36:05;;;;;;;7.82;7.03;;;25.30;72.30;;;;;;5001588;23;20231;-59
2021/07/22 11:38:32;;;;;;;8.23;7.43;;;25.30;72.30;;;;;;4985718;28;20200;-58
2021/07/22 11:40:58;;;;;;;8.10;7.30;;;25.40;72.40;;;;;;4995625;28;20227;-58
2021/07/22 11:43:24;;;;;;;8.40;7.60;;;25.30;72.10;;;;;;4988295;28;20208;-57
2021/07/22 11:45:52;;;;;;;8.90;7.45;;;25.40;72.10;;;;;;4990652;28;20227;-58
2021/07/22 11:48:18;;;;;;;7.72;7.03;;;25.30;72.20;;;;;;4991039;28;20582;-57
2021/07/22 11:50:45;;;;;;;7.85;7.07;;;25.30;72.30;;;;;;4990046;28;20254;-56
2021/07/22 11:53:11;;;;;;;8.40;7.57;;;25.30;72.30;;;;;;4986930;28;20206;-57
2021/07/22 11:55:38;;;;;;;8.13;7.32;;;25.30;72.30;;;;;;4984820;28;20220;-57
2021/07/22 11:58:04;;;;;;;9.38;7.45;;;25.30;72.30;;;;;;4983745;28;20671;-57
2021/07/22 12:00:31;;;;;;;9.65;7.97;;;25.30;72.30;;;;;;4990320;28;20204;-58
2021/07/22 12:02:57;;;;;;;12.90;8.75;;;25.30;72.30;;;;;;4990768;28;20302;-59
2021/07/22 12:05:24;;;;;;;13.48;8.02;;;25.40;72.40;;;;;;4989411;28;20240;-59
2021/07/22 12:07:52;;;;;;;13.48;9.15;;;25.40;72.40;;;;;;4991265;28;20234;-60
2021/07/22 12:10:18;;;;;;;12.77;8.45;;;25.40;72.40;;;;;;4990537;28;20198;-60
2021/07/22 12:12:44;;;;;;;14.00;9.63;;;25.40;72.40;;;;;;4989115;28;20204;-59
2021/07/22 12:15:11;;;;;;;14.60;9.80;;;25.40;72.50;;;;;;4993422;28;20301;-59
2021/07/22 12:17:37;;;;;;;15.90;9.82;;;25.40;72.40;;;;;;4992592;28;20203;-58
2021/07/22 12:20:04;;;;;;;17.25;10.18;;;25.40;72.50;;;;;;4994287;28;20203;-58
2021/07/22 12:22:30;;;;;;;14.23;9.80;;;25.40;72.80;;;;;;4995009;28;20203;-58
2021/07/22 12:24:57;;;;;;;18.73;10.23;;;25.40;72.80;;;;;;4988636;28;20243;-58
2021/07/22 12:27:23;;;;;;;15.95;10.80;;;25.40;72.90;;;;;;4985382;28;20214;-59
2021/07/22 12:29:50;;;;;;;14.43;10.43;;;25.40;72.90;;;;;;4992913;28;20192;-59
2021/07/22 12:32:16;;;;;;;15.40;10.27;;;25.40;72.80;;;;;;4992381;28;20200;-58
2021/07/22 12:34:42;;;;;;;16.95;10.57;;;25.40;72.70;;;;;;4989110;28;20228;-59
2021/07/22 12:37:09;;;;;;;14.63;10.45;;;25.30;72.60;;;;;;4976816;28;20226;-59
2021/07/22 12:39:35;;;;;;;17.70;10.07;;;25.40;72.50;;;;;;4991557;28;20202;-59